sensor_id;sensor_type;location;lat;lon;timestamp;P1;durP1;ratioP1;P2;durP2;ratioP2
11887;SDS011;6003;42.756;23.130;2023-08-31T00:01:31;1.60;;;1.43;;
11887;SDS011;6003;42.756;23.130;2023-08-31T00:04:00;3.67;;;1.50;;
11887;SDS011;6003;42.756;23.130;2023-08-31T00:06:29;1.67;;;1.23;;
11887;SDS011;6003;42.756;23.130;2023-08-31T00:08:56;2.40;;;1.27;;
11887;SDS011;6003;42.756;23.130;2023-08-31T00:11:30;1.40;;;1.30;;
11887;SDS011;6003;42.756;23.130;2023-08-31T00:13:57;1.47;;;1.37;;
11887;SDS011;6003;42.756;23.130;2023-08-31T00:16:24;1.70;;;1.23;;
11887;SDS011;6003;42.756;23.130;2023-08-31T00:18:52;1.30;;;1.13;;
11887;SDS011;6003;42.756;23.130;2023-08-31T00:21:20;2.47;;;1.20;;
11887;SDS011;6003;42.756;23.130;2023-08-31T00:23:47;2.60;;;1.27;;
11887;SDS011;6003;42.756;23.130;2023-08-31T00:26:19;1.97;;;1.10;;
11887;SDS011;6003;42.756;23.130;2023-08-31T00:28:46;2.00;;;1.30;;
11887;SDS011;6003;42.756;23.130;2023-08-31T00:31:14;4.00;;;1.60;;
11887;SDS011;6003;42.756;23.130;2023-08-31T00:33:41;1.73;;;1.27;;
11887;SDS011;6003;42.756;23.130;2023-08-31T00:36:08;3.23;;;1.20;;
11887;SDS011;6003;42.756;23.130;2023-08-31T00:38:38;1.20;;;1.10;;
11887;SDS011;6003;42.756;23.130;2023-08-31T00:41:04;1.37;;;1.00;;
11887;SDS011;6003;42.756;23.130;2023-08-31T00:43:32;1.07;;;1.07;;
11887;SDS011;6003;42.756;23.130;2023-08-31T00:46:00;5.00;;;1.67;;
11887;SDS011;6003;42.756;23.130;2023-08-31T00:48:27;2.13;;;0.80;;
11887;SDS011;6003;42.756;23.130;2023-08-31T00:50:54;2.60;;;1.27;;
11887;SDS011;6003;42.756;23.130;2023-08-31T00:53:21;2.17;;;1.10;;
11887;SDS011;6003;42.756;23.130;2023-08-31T00:55:51;2.27;;;1.20;;
11887;SDS011;6003;42.756;23.130;2023-08-31T00:58:18;1.23;;;1.03;;
11887;SDS011;6003;42.756;23.130;2023-08-31T01:03:35;1.30;;;1.20;;
11887;SDS011;6003;42.756;23.130;2023-08-31T01:06:24;1.17;;;1.07;;
11887;SDS011;6003;42.756;23.130;2023-08-31T01:11:58;4.30;;;1.30;;
11887;SDS011;6003;42.756;23.130;2023-08-31T01:14:31;5.53;;;1.57;;
11887;SDS011;6003;42.756;23.130;2023-08-31T01:17:01;3.47;;;1.20;;
11887;SDS011;6003;42.756;23.130;2023-08-31T01:19:32;3.17;;;1.33;;
11887;SDS011;6003;42.756;23.130;2023-08-31T01:22:18;2.27;;;1.20;;
11887;SDS011;6003;42.756;23.130;2023-08-31T01:24:57;6.33;;;1.60;;
11887;SDS011;6003;42.756;23.130;2023-08-31T01:27:28;2.97;;;1.20;;
11887;SDS011;6003;42.756;23.130;2023-08-31T01:30:01;4.27;;;1.43;;
11887;SDS011;6003;42.756;23.130;2023-08-31T01:32:29;1.83;;;1.20;;
11887;SDS011;6003;42.756;23.130;2023-08-31T01:34:57;1.87;;;1.17;;
11887;SDS011;6003;42.756;23.130;2023-08-31T01:37:29;4.20;;;1.27;;
11887;SDS011;6003;42.756;23.130;2023-08-31T01:40:04;1.80;;;1.20;;
11887;SDS011;6003;42.756;23.130;2023-08-31T01:42:37;3.67;;;1.40;;
11887;SDS011;6003;42.756;23.130;2023-08-31T01:45:06;1.23;;;1.03;;
11887;SDS011;6003;42.756;23.130;2023-08-31T01:47:35;2.90;;;0.90;;
11887;SDS011;6003;42.756;23.130;2023-08-31T01:50:02;3.80;;;1.30;;
11887;SDS011;6003;42.756;23.130;2023-08-31T01:52:29;1.77;;;1.10;;
11887;SDS011;6003;42.756;23.130;2023-08-31T01:54:57;4.80;;;1.20;;
11887;SDS011;6003;42.756;23.130;2023-08-31T01:57:25;4.50;;;1.40;;
11887;SDS011;6003;42.756;23.130;2023-08-31T01:59:52;2.87;;;0.97;;
11887;SDS011;6003;42.756;23.130;2023-08-31T02:02:20;2.10;;;1.03;;
11887;SDS011;6003;42.756;23.130;2023-08-31T02:04:47;5.30;;;1.63;;
11887;SDS011;6003;42.756;23.130;2023-08-31T02:07:15;4.20;;;1.70;;
11887;SDS011;6003;42.756;23.130;2023-08-31T02:09:42;2.90;;;1.10;;
11887;SDS011;6003;42.756;23.130;2023-08-31T02:12:09;2.73;;;1.47;;
11887;SDS011;6003;42.756;23.130;2023-08-31T02:14:38;0.90;;;0.90;;
11887;SDS011;6003;42.756;23.130;2023-08-31T02:17:05;1.47;;;1.10;;
11887;SDS011;6003;42.756;23.130;2023-08-31T02:19:32;3.60;;;1.23;;
11887;SDS011;6003;42.756;23.130;2023-08-31T02:21:59;2.43;;;0.80;;
11887;SDS011;6003;42.756;23.130;2023-08-31T02:24:26;1.77;;;1.00;;
11887;SDS011;6003;42.756;23.130;2023-08-31T02:26:53;3.87;;;1.20;;
11887;SDS011;6003;42.756;23.130;2023-08-31T02:29:20;2.53;;;0.97;;
11887;SDS011;6003;42.756;23.130;2023-08-31T02:31:49;3.20;;;1.17;;
11887;SDS011;6003;42.756;23.130;2023-08-31T02:34:16;1.30;;;1.03;;
11887;SDS011;6003;42.756;23.130;2023-08-31T02:36:42;3.87;;;1.20;;
11887;SDS011;6003;42.756;23.130;2023-08-31T02:39:09;3.33;;;0.90;;
11887;SDS011;6003;42.756;23.130;2023-08-31T02:41:37;1.00;;;0.90;;
11887;SDS011;6003;42.756;23.130;2023-08-31T02:44:05;2.13;;;0.83;;
11887;SDS011;6003;42.756;23.130;2023-08-31T02:46:32;1.90;;;1.00;;
11887;SDS011;6003;42.756;23.130;2023-08-31T02:49:00;0.90;;;0.90;;
11887;SDS011;6003;42.756;23.130;2023-08-31T02:51:27;4.67;;;1.27;;
11887;SDS011;6003;42.756;23.130;2023-08-31T02:53:54;1.67;;;1.00;;
11887;SDS011;6003;42.756;23.130;2023-08-31T02:56:21;2.70;;;0.97;;
11887;SDS011;6003;42.756;23.130;2023-08-31T02:58:48;3.10;;;1.10;;
11887;SDS011;6003;42.756;23.130;2023-08-31T03:01:15;3.03;;;1.00;;
11887;SDS011;6003;42.756;23.130;2023-08-31T03:03:42;3.03;;;1.10;;
11887;SDS011;6003;42.756;23.130;2023-08-31T03:06:12;3.40;;;1.77;;
11887;SDS011;6003;42.756;23.130;2023-08-31T03:08:39;0.83;;;0.80;;
11887;SDS011;6003;42.756;23.130;2023-08-31T03:11:06;2.23;;;1.03;;
11887;SDS011;6003;42.756;23.130;2023-08-31T03:13:33;5.70;;;1.30;;
11887;SDS011;6003;42.756;23.130;2023-08-31T03:16:00;1.00;;;0.93;;
11887;SDS011;6003;42.756;23.130;2023-08-31T03:18:28;2.63;;;1.03;;
11887;SDS011;6003;42.756;23.130;2023-08-31T03:20:55;1.80;;;1.10;;
11887;SDS011;6003;42.756;23.130;2023-08-31T03:23:23;1.93;;;1.13;;
11887;SDS011;6003;42.756;23.130;2023-08-31T03:25:51;2.57;;;1.00;;
11887;SDS011;6003;42.756;23.130;2023-08-31T03:28:18;5.23;;;1.13;;
11887;SDS011;6003;42.756;23.130;2023-08-31T03:30:53;2.10;;;1.10;;
11887;SDS011;6003;42.756;23.130;2023-08-31T03:33:21;4.53;;;1.30;;
11887;SDS011;6003;42.756;23.130;2023-08-31T03:35:48;2.83;;;1.17;;
11887;SDS011;6003;42.756;23.130;2023-08-31T03:38:15;3.37;;;1.10;;
11887;SDS011;6003;42.756;23.130;2023-08-31T03:40:43;3.80;;;1.20;;
11887;SDS011;6003;42.756;23.130;2023-08-31T03:43:19;2.27;;;1.20;;
11887;SDS011;6003;42.756;23.130;2023-08-31T03:45:46;4.47;;;1.20;;
11887;SDS011;6003;42.756;23.130;2023-08-31T03:48:13;1.93;;;1.10;;
11887;SDS011;6003;42.756;23.130;2023-08-31T03:50:39;1.23;;;1.00;;
11887;SDS011;6003;42.756;23.130;2023-08-31T03:53:06;0.70;;;0.70;;
11887;SDS011;6003;42.756;23.130;2023-08-31T03:55:35;1.10;;;0.70;;
11887;SDS011;6003;42.756;23.130;2023-08-31T03:58:04;1.77;;;0.73;;
11887;SDS011;6003;42.756;23.130;2023-08-31T04:00:31;3.73;;;1.37;;
11887;SDS011;6003;42.756;23.130;2023-08-31T04:02:57;3.07;;;1.20;;
11887;SDS011;6003;42.756;23.130;2023-08-31T04:05:24;2.53;;;1.10;;
11887;SDS011;6003;42.756;23.130;2023-08-31T04:07:51;2.67;;;1.17;;
11887;SDS011;6003;42.756;23.130;2023-08-31T04:10:18;3.13;;;1.00;;
11887;SDS011;6003;42.756;23.130;2023-08-31T04:12:45;2.83;;;1.27;;
11887;SDS011;6003;42.756;23.130;2023-08-31T04:15:14;2.43;;;1.10;;
11887;SDS011;6003;42.756;23.130;2023-08-31T04:17:41;3.03;;;1.30;;
11887;SDS011;6003;42.756;23.130;2023-08-31T04:20:11;2.43;;;0.90;;
11887;SDS011;6003;42.756;23.130;2023-08-31T04:22:38;2.77;;;1.27;;
11887;SDS011;6003;42.756;23.130;2023-08-31T04:25:05;1.03;;;0.90;;
11887;SDS011;6003;42.756;23.130;2023-08-31T04:27:32;1.47;;;1.23;;
11887;SDS011;6003;42.756;23.130;2023-08-31T04:29:59;4.13;;;1.13;;
11887;SDS011;6003;42.756;23.130;2023-08-31T04:32:28;1.00;;;1.00;;
11887;SDS011;6003;42.756;23.130;2023-08-31T04:34:55;1.93;;;1.20;;
11887;SDS011;6003;42.756;23.130;2023-08-31T04:37:22;2.60;;;1.00;;
11887;SDS011;6003;42.756;23.130;2023-08-31T04:39:49;1.97;;;1.00;;
11887;SDS011;6003;42.756;23.130;2023-08-31T04:42:16;4.83;;;3.33;;
11887;SDS011;6003;42.756;23.130;2023-08-31T04:44:43;7.63;;;3.73;;
11887;SDS011;6003;42.756;23.130;2023-08-31T04:47:10;2.07;;;1.27;;
11887;SDS011;6003;42.756;23.130;2023-08-31T04:49:40;1.33;;;1.27;;
11887;SDS011;6003;42.756;23.130;2023-08-31T04:52:07;4.07;;;1.40;;
11887;SDS011;6003;42.756;23.130;2023-08-31T04:54:34;0.90;;;0.90;;
11887;SDS011;6003;42.756;23.130;2023-08-31T04:57:01;1.87;;;1.10;;
11887;SDS011;6003;42.756;23.130;2023-08-31T04:59:28;3.13;;;1.17;;
11887;SDS011;6003;42.756;23.130;2023-08-31T05:01:55;3.67;;;1.23;;
11887;SDS011;6003;42.756;23.130;2023-08-31T05:04:22;3.70;;;1.27;;
11887;SDS011;6003;42.756;23.130;2023-08-31T05:06:51;6.23;;;1.60;;
11887;SDS011;6003;42.756;23.130;2023-08-31T05:09:17;3.40;;;1.27;;
11887;SDS011;6003;42.756;23.130;2023-08-31T05:11:45;4.00;;;1.23;;
11887;SDS011;6003;42.756;23.130;2023-08-31T05:14:12;5.20;;;1.50;;
11887;SDS011;6003;42.756;23.130;2023-08-31T05:16:39;4.20;;;1.47;;
11887;SDS011;6003;42.756;23.130;2023-08-31T05:19:06;2.87;;;1.40;;
11887;SDS011;6003;42.756;23.130;2023-08-31T05:21:33;4.90;;;1.63;;
11887;SDS011;6003;42.756;23.130;2023-08-31T05:24:01;1.80;;;1.33;;
11887;SDS011;6003;42.756;23.130;2023-08-31T05:26:28;1.30;;;1.10;;
11887;SDS011;6003;42.756;23.130;2023-08-31T05:28:55;5.87;;;1.80;;
11887;SDS011;6003;42.756;23.130;2023-08-31T05:31:21;3.57;;;1.30;;
11887;SDS011;6003;42.756;23.130;2023-08-31T05:33:48;6.30;;;1.60;;
11887;SDS011;6003;42.756;23.130;2023-08-31T05:36:15;8.03;;;2.20;;
11887;SDS011;6003;42.756;23.130;2023-08-31T05:38:42;5.80;;;1.77;;
11887;SDS011;6003;42.756;23.130;2023-08-31T05:41:10;5.97;;;1.90;;
11887;SDS011;6003;42.756;23.130;2023-08-31T05:43:37;8.20;;;1.90;;
11887;SDS011;6003;42.756;23.130;2023-08-31T05:46:05;3.33;;;1.50;;
11887;SDS011;6003;42.756;23.130;2023-08-31T05:48:33;4.60;;;1.57;;
11887;SDS011;6003;42.756;23.130;2023-08-31T05:51:00;7.27;;;1.87;;
11887;SDS011;6003;42.756;23.130;2023-08-31T05:53:28;2.40;;;1.30;;
11887;SDS011;6003;42.756;23.130;2023-08-31T05:55:56;2.93;;;1.63;;
11887;SDS011;6003;42.756;23.130;2023-08-31T05:58:31;6.10;;;1.57;;
11887;SDS011;6003;42.756;23.130;2023-08-31T06:00:58;2.63;;;1.37;;
11887;SDS011;6003;42.756;23.130;2023-08-31T06:03:26;4.40;;;1.80;;
11887;SDS011;6003;42.756;23.130;2023-08-31T06:05:54;1.93;;;1.10;;
11887;SDS011;6003;42.756;23.130;2023-08-31T06:08:21;3.43;;;1.40;;
11887;SDS011;6003;42.756;23.130;2023-08-31T06:10:49;9.67;;;2.00;;
11887;SDS011;6003;42.756;23.130;2023-08-31T06:13:16;4.10;;;1.40;;
11887;SDS011;6003;42.756;23.130;2023-08-31T06:15:44;5.33;;;1.53;;
11887;SDS011;6003;42.756;23.130;2023-08-31T06:18:11;5.13;;;1.77;;
11887;SDS011;6003;42.756;23.130;2023-08-31T06:20:38;3.10;;;1.43;;
11887;SDS011;6003;42.756;23.130;2023-08-31T06:23:05;3.83;;;1.67;;
11887;SDS011;6003;42.756;23.130;2023-08-31T06:25:32;5.27;;;1.60;;
11887;SDS011;6003;42.756;23.130;2023-08-31T06:27:59;4.53;;;1.47;;
11887;SDS011;6003;42.756;23.130;2023-08-31T06:30:26;3.47;;;1.50;;
11887;SDS011;6003;42.756;23.130;2023-08-31T06:32:54;6.57;;;1.60;;
11887;SDS011;6003;42.756;23.130;2023-08-31T06:35:22;7.53;;;2.00;;
11887;SDS011;6003;42.756;23.130;2023-08-31T06:37:49;3.93;;;1.70;;
11887;SDS011;6003;42.756;23.130;2023-08-31T06:40:16;4.87;;;1.70;;
11887;SDS011;6003;42.756;23.130;2023-08-31T06:42:43;4.43;;;1.90;;
11887;SDS011;6003;42.756;23.130;2023-08-31T06:45:10;4.63;;;1.80;;
11887;SDS011;6003;42.756;23.130;2023-08-31T06:47:37;7.93;;;1.70;;
11887;SDS011;6003;42.756;23.130;2023-08-31T06:50:06;3.73;;;1.60;;
11887;SDS011;6003;42.756;23.130;2023-08-31T06:52:33;2.73;;;1.40;;
11887;SDS011;6003;42.756;23.130;2023-08-31T06:55:00;5.27;;;1.70;;
11887;SDS011;6003;42.756;23.130;2023-08-31T06:57:28;6.30;;;1.73;;
11887;SDS011;6003;42.756;23.130;2023-08-31T06:59:55;4.13;;;1.70;;
11887;SDS011;6003;42.756;23.130;2023-08-31T07:02:22;7.03;;;1.93;;
11887;SDS011;6003;42.756;23.130;2023-08-31T07:04:49;5.93;;;2.00;;
11887;SDS011;6003;42.756;23.130;2023-08-31T07:07:18;5.40;;;1.70;;
11887;SDS011;6003;42.756;23.130;2023-08-31T07:09:46;9.93;;;2.03;;
11887;SDS011;6003;42.756;23.130;2023-08-31T07:12:13;5.10;;;1.57;;
11887;SDS011;6003;42.756;23.130;2023-08-31T07:14:40;4.18;;;1.65;;
11887;SDS011;6003;42.756;23.130;2023-08-31T07:17:07;7.40;;;1.90;;
11887;SDS011;6003;42.756;23.130;2023-08-31T07:19:35;2.97;;;1.30;;
11887;SDS011;6003;42.756;23.130;2023-08-31T07:22:03;5.93;;;1.83;;
11887;SDS011;6003;42.756;23.130;2023-08-31T07:24:32;2.83;;;1.30;;
11887;SDS011;6003;42.756;23.130;2023-08-31T07:27:01;4.00;;;1.53;;
11887;SDS011;6003;42.756;23.130;2023-08-31T07:29:29;4.95;;;1.50;;
11887;SDS011;6003;42.756;23.130;2023-08-31T07:31:56;5.75;;;1.60;;
11887;SDS011;6003;42.756;23.130;2023-08-31T07:34:23;5.85;;;1.88;;
11887;SDS011;6003;42.756;23.130;2023-08-31T07:36:50;8.45;;;1.60;;
11887;SDS011;6003;42.756;23.130;2023-08-31T07:39:17;6.70;;;1.73;;
11887;SDS011;6003;42.756;23.130;2023-08-31T07:41:45;4.15;;;1.58;;
11887;SDS011;6003;42.756;23.130;2023-08-31T07:44:12;2.97;;;1.70;;
11887;SDS011;6003;42.756;23.130;2023-08-31T07:46:39;3.00;;;1.25;;
11887;SDS011;6003;42.756;23.130;2023-08-31T07:49:06;2.00;;;1.80;;
11887;SDS011;6003;42.756;23.130;2023-08-31T07:51:33;3.50;;;1.55;;
11887;SDS011;6003;42.756;23.130;2023-08-31T07:54:00;1.40;;;1.27;;
11887;SDS011;6003;42.756;23.130;2023-08-31T07:56:28;2.80;;;1.58;;
11887;SDS011;6003;42.756;23.130;2023-08-31T07:58:56;2.88;;;1.35;;
11887;SDS011;6003;42.756;23.130;2023-08-31T08:01:23;3.13;;;1.50;;
11887;SDS011;6003;42.756;23.130;2023-08-31T08:03:50;3.20;;;1.63;;
11887;SDS011;6003;42.756;23.130;2023-08-31T08:06:17;9.63;;;2.28;;
11887;SDS011;6003;42.756;23.130;2023-08-31T08:08:44;2.70;;;1.55;;
11887;SDS011;6003;42.756;23.130;2023-08-31T08:11:11;4.45;;;2.05;;
11887;SDS011;6003;42.756;23.130;2023-08-31T08:13:37;4.88;;;2.00;;
11887;SDS011;6003;42.756;23.130;2023-08-31T08:16:06;2.55;;;1.88;;
11887;SDS011;6003;42.756;23.130;2023-08-31T08:18:34;4.15;;;2.22;;
11887;SDS011;6003;42.756;23.130;2023-08-31T08:21:00;6.25;;;2.00;;
11887;SDS011;6003;42.756;23.130;2023-08-31T08:23:28;7.63;;;2.28;;
11887;SDS011;6003;42.756;23.130;2023-08-31T08:25:55;3.53;;;2.13;;
11887;SDS011;6003;42.756;23.130;2023-08-31T08:28:24;5.18;;;1.85;;
11887;SDS011;6003;42.756;23.130;2023-08-31T08:30:51;7.00;;;2.47;;
11887;SDS011;6003;42.756;23.130;2023-08-31T08:33:19;5.97;;;2.10;;
11887;SDS011;6003;42.756;23.130;2023-08-31T08:35:46;7.80;;;2.40;;
11887;SDS011;6003;42.756;23.130;2023-08-31T08:38:13;9.10;;;2.65;;
11887;SDS011;6003;42.756;23.130;2023-08-31T08:40:39;7.50;;;2.60;;
11887;SDS011;6003;42.756;23.130;2023-08-31T08:43:06;8.27;;;2.17;;
11887;SDS011;6003;42.756;23.130;2023-08-31T08:45:35;5.22;;;2.33;;
11887;SDS011;6003;42.756;23.130;2023-08-31T08:48:04;5.72;;;1.92;;
11887;SDS011;6003;42.756;23.130;2023-08-31T08:50:34;7.13;;;2.22;;
11887;SDS011;6003;42.756;23.130;2023-08-31T08:53:02;4.63;;;2.00;;
11887;SDS011;6003;42.756;23.130;2023-08-31T08:55:30;3.80;;;1.95;;
11887;SDS011;6003;42.756;23.130;2023-08-31T08:57:57;5.93;;;1.98;;
11887;SDS011;6003;42.756;23.130;2023-08-31T09:00:26;6.35;;;1.83;;
11887;SDS011;6003;42.756;23.130;2023-08-31T09:02:53;6.82;;;2.35;;
11887;SDS011;6003;42.756;23.130;2023-08-31T09:05:20;4.82;;;2.20;;
11887;SDS011;6003;42.756;23.130;2023-08-31T09:08:05;5.97;;;2.38;;
11887;SDS011;6003;42.756;23.130;2023-08-31T09:10:35;5.55;;;2.50;;
11887;SDS011;6003;42.756;23.130;2023-08-31T09:13:04;5.78;;;2.20;;
11887;SDS011;6003;42.756;23.130;2023-08-31T09:15:36;6.53;;;2.08;;
11887;SDS011;6003;42.756;23.130;2023-08-31T09:18:06;5.35;;;2.22;;
11887;SDS011;6003;42.756;23.130;2023-08-31T09:20:42;5.70;;;2.70;;
11887;SDS011;6003;42.756;23.130;2023-08-31T09:23:11;9.88;;;2.72;;
11887;SDS011;6003;42.756;23.130;2023-08-31T09:25:41;5.63;;;2.40;;
11887;SDS011;6003;42.756;23.130;2023-08-31T09:28:09;3.25;;;1.83;;
11887;SDS011;6003;42.756;23.130;2023-08-31T09:30:37;5.68;;;2.05;;
11887;SDS011;6003;42.756;23.130;2023-08-31T09:33:05;2.20;;;1.98;;
11887;SDS011;6003;42.756;23.130;2023-08-31T09:35:34;11.27;;;2.95;;
11887;SDS011;6003;42.756;23.130;2023-08-31T09:38:05;3.70;;;2.17;;
11887;SDS011;6003;42.756;23.130;2023-08-31T09:40:35;5.70;;;2.42;;
11887;SDS011;6003;42.756;23.130;2023-08-31T09:43:03;6.50;;;2.58;;
11887;SDS011;6003;42.756;23.130;2023-08-31T09:45:30;4.60;;;2.10;;
11887;SDS011;6003;42.756;23.130;2023-08-31T09:47:58;5.28;;;2.40;;
11887;SDS011;6003;42.756;23.130;2023-08-31T09:50:26;4.22;;;2.13;;
11887;SDS011;6003;42.756;23.130;2023-08-31T09:52:55;4.47;;;2.17;;
11887;SDS011;6003;42.756;23.130;2023-08-31T09:55:27;5.53;;;2.35;;
11887;SDS011;6003;42.756;23.130;2023-08-31T09:57:56;2.47;;;2.28;;
11887;SDS011;6003;42.756;23.130;2023-08-31T10:00:24;2.42;;;1.77;;
11887;SDS011;6003;42.756;23.130;2023-08-31T10:02:52;7.43;;;2.70;;
11887;SDS011;6003;42.756;23.130;2023-08-31T10:05:20;5.53;;;2.38;;
11887;SDS011;6003;42.756;23.130;2023-08-31T10:07:48;5.22;;;2.08;;
11887;SDS011;6003;42.756;23.130;2023-08-31T10:10:16;8.38;;;2.50;;
11887;SDS011;6003;42.756;23.130;2023-08-31T10:12:44;8.27;;;2.53;;
11887;SDS011;6003;42.756;23.130;2023-08-31T10:15:13;9.63;;;2.63;;
11887;SDS011;6003;42.756;23.130;2023-08-31T10:17:41;10.23;;;2.30;;
11887;SDS011;6003;42.756;23.130;2023-08-31T10:20:09;5.55;;;2.22;;
11887;SDS011;6003;42.756;23.130;2023-08-31T10:22:37;6.85;;;2.28;;
11887;SDS011;6003;42.756;23.130;2023-08-31T10:25:05;6.70;;;2.15;;
11887;SDS011;6003;42.756;23.130;2023-08-31T10:27:36;5.75;;;2.10;;
11887;SDS011;6003;42.756;23.130;2023-08-31T10:30:16;4.63;;;2.05;;
11887;SDS011;6003;42.756;23.130;2023-08-31T10:35:50;5.07;;;1.98;;
11887;SDS011;6003;42.756;23.130;2023-08-31T10:38:25;4.90;;;1.98;;
11887;SDS011;6003;42.756;23.130;2023-08-31T10:41:02;3.42;;;1.90;;
11887;SDS011;6003;42.756;23.130;2023-08-31T10:43:45;6.57;;;2.28;;
11887;SDS011;6003;42.756;23.130;2023-08-31T10:46:19;3.70;;;1.98;;
11887;SDS011;6003;42.756;23.130;2023-08-31T10:48:53;6.57;;;2.22;;
11887;SDS011;6003;42.756;23.130;2023-08-31T10:51:23;6.28;;;2.10;;
11887;SDS011;6003;42.756;23.130;2023-08-31T10:53:52;6.85;;;2.20;;
11887;SDS011;6003;42.756;23.130;2023-08-31T10:56:29;6.28;;;2.22;;
11887;SDS011;6003;42.756;23.130;2023-08-31T10:58:57;4.18;;;1.92;;
11887;SDS011;6003;42.756;23.130;2023-08-31T11:04:22;6.28;;;1.98;;
11887;SDS011;6003;42.756;23.130;2023-08-31T11:06:50;9.27;;;2.33;;
11887;SDS011;6003;42.756;23.130;2023-08-31T11:09:39;5.10;;;1.80;;
11887;SDS011;6003;42.756;23.130;2023-08-31T11:12:06;5.57;;;2.10;;
11887;SDS011;6003;42.756;23.130;2023-08-31T11:14:34;1.48;;;1.38;;
11887;SDS011;6003;42.756;23.130;2023-08-31T11:17:02;1.98;;;1.40;;
11887;SDS011;6003;42.756;23.130;2023-08-31T11:19:30;5.05;;;1.77;;
11887;SDS011;6003;42.756;23.130;2023-08-31T11:21:58;3.72;;;1.60;;
11887;SDS011;6003;42.756;23.130;2023-08-31T11:24:26;7.70;;;2.03;;
11887;SDS011;6003;42.756;23.130;2023-08-31T11:26:53;3.35;;;1.55;;
11887;SDS011;6003;42.756;23.130;2023-08-31T11:29:20;5.93;;;2.25;;
11887;SDS011;6003;42.756;23.130;2023-08-31T11:31:47;3.75;;;1.40;;
11887;SDS011;6003;42.756;23.130;2023-08-31T11:34:16;7.75;;;2.05;;
11887;SDS011;6003;42.756;23.130;2023-08-31T11:36:44;8.05;;;2.05;;
11887;SDS011;6003;42.756;23.130;2023-08-31T11:39:13;6.15;;;2.10;;
11887;SDS011;6003;42.756;23.130;2023-08-31T11:41:40;7.75;;;2.22;;
11887;SDS011;6003;42.756;23.130;2023-08-31T11:44:09;5.22;;;1.85;;
11887;SDS011;6003;42.756;23.130;2023-08-31T11:46:36;6.70;;;1.88;;
11887;SDS011;6003;42.756;23.130;2023-08-31T11:49:03;7.97;;;2.25;;
11887;SDS011;6003;42.756;23.130;2023-08-31T11:51:33;5.25;;;1.88;;
11887;SDS011;6003;42.756;23.130;2023-08-31T11:54:01;6.43;;;1.92;;
11887;SDS011;6003;42.756;23.130;2023-08-31T11:56:38;5.97;;;2.35;;
11887;SDS011;6003;42.756;23.130;2023-08-31T11:59:07;5.53;;;1.83;;
11887;SDS011;6003;42.756;23.130;2023-08-31T12:01:37;4.13;;;1.70;;
11887;SDS011;6003;42.756;23.130;2023-08-31T12:04:09;4.55;;;1.70;;
11887;SDS011;6003;42.756;23.130;2023-08-31T12:06:39;4.32;;;1.60;;
11887;SDS011;6003;42.756;23.130;2023-08-31T12:09:06;4.68;;;1.58;;
11887;SDS011;6003;42.756;23.130;2023-08-31T12:11:34;5.20;;;2.00;;
11887;SDS011;6003;42.756;23.130;2023-08-31T12:14:01;6.70;;;2.03;;
11887;SDS011;6003;42.756;23.130;2023-08-31T12:16:32;5.30;;;1.75;;
11887;SDS011;6003;42.756;23.130;2023-08-31T12:19:01;2.30;;;1.85;;
11887;SDS011;6003;42.756;23.130;2023-08-31T12:21:30;6.75;;;1.85;;
11887;SDS011;6003;42.756;23.130;2023-08-31T12:23:58;4.75;;;1.60;;
11887;SDS011;6003;42.756;23.130;2023-08-31T12:26:26;7.50;;;2.33;;
11887;SDS011;6003;42.756;23.130;2023-08-31T12:28:53;7.57;;;2.67;;
11887;SDS011;6003;42.756;23.130;2023-08-31T12:31:21;5.95;;;1.95;;
11887;SDS011;6003;42.756;23.130;2023-08-31T12:33:48;6.30;;;1.73;;
11887;SDS011;6003;42.756;23.130;2023-08-31T12:36:15;22.65;;;4.13;;
11887;SDS011;6003;42.756;23.130;2023-08-31T12:38:42;14.75;;;2.92;;
11887;SDS011;6003;42.756;23.130;2023-08-31T12:41:11;14.68;;;3.08;;
11887;SDS011;6003;42.756;23.130;2023-08-31T12:43:38;21.85;;;3.95;;
11887;SDS011;6003;42.756;23.130;2023-08-31T12:46:05;12.77;;;2.85;;
11887;SDS011;6003;42.756;23.130;2023-08-31T12:48:33;20.67;;;4.00;;
11887;SDS011;6003;42.756;23.130;2023-08-31T12:50:59;14.85;;;2.88;;
11887;SDS011;6003;42.756;23.130;2023-08-31T12:53:26;15.57;;;3.35;;
11887;SDS011;6003;42.756;23.130;2023-08-31T12:55:53;7.60;;;2.30;;
11887;SDS011;6003;42.756;23.130;2023-08-31T12:58:21;13.95;;;3.15;;
11887;SDS011;6003;42.756;23.130;2023-08-31T13:00:48;17.95;;;3.63;;
11887;SDS011;6003;42.756;23.130;2023-08-31T13:03:18;11.18;;;2.50;;
11887;SDS011;6003;42.756;23.130;2023-08-31T13:05:45;9.95;;;2.40;;
11887;SDS011;6003;42.756;23.130;2023-08-31T13:08:11;13.75;;;2.90;;
11887;SDS011;6003;42.756;23.130;2023-08-31T13:10:39;20.15;;;3.63;;
11887;SDS011;6003;42.756;23.130;2023-08-31T13:13:05;8.77;;;2.47;;
11887;SDS011;6003;42.756;23.130;2023-08-31T13:15:34;16.50;;;3.50;;
11887;SDS011;6003;42.756;23.130;2023-08-31T13:18:00;14.63;;;2.95;;
11887;SDS011;6003;42.756;23.130;2023-08-31T13:20:27;18.10;;;3.55;;
11887;SDS011;6003;42.756;23.130;2023-08-31T13:22:55;12.40;;;2.88;;
11887;SDS011;6003;42.756;23.130;2023-08-31T13:25:22;19.75;;;3.40;;
11887;SDS011;6003;42.756;23.130;2023-08-31T13:27:48;13.13;;;3.00;;
11887;SDS011;6003;42.756;23.130;2023-08-31T13:30:15;12.80;;;2.80;;
11887;SDS011;6003;42.756;23.130;2023-08-31T13:32:44;13.35;;;2.95;;
11887;SDS011;6003;42.756;23.130;2023-08-31T13:35:10;9.45;;;2.40;;
11887;SDS011;6003;42.756;23.130;2023-08-31T13:37:37;15.57;;;3.35;;
11887;SDS011;6003;42.756;23.130;2023-08-31T13:40:05;13.93;;;2.85;;
11887;SDS011;6003;42.756;23.130;2023-08-31T13:42:34;17.10;;;3.55;;
11887;SDS011;6003;42.756;23.130;2023-08-31T13:45:03;15.00;;;3.15;;
11887;SDS011;6003;42.756;23.130;2023-08-31T13:47:32;23.25;;;4.28;;
11887;SDS011;6003;42.756;23.130;2023-08-31T13:50:00;10.05;;;2.50;;
11887;SDS011;6003;42.756;23.130;2023-08-31T13:52:29;18.13;;;3.30;;
11887;SDS011;6003;42.756;23.130;2023-08-31T13:54:55;8.57;;;2.33;;
11887;SDS011;6003;42.756;23.130;2023-08-31T13:57:22;17.27;;;3.15;;
11887;SDS011;6003;42.756;23.130;2023-08-31T13:59:49;9.52;;;2.38;;
11887;SDS011;6003;42.756;23.130;2023-08-31T14:02:16;16.37;;;3.17;;
11887;SDS011;6003;42.756;23.130;2023-08-31T14:04:43;9.15;;;2.30;;
11887;SDS011;6003;42.756;23.130;2023-08-31T14:07:11;12.17;;;2.83;;
11887;SDS011;6003;42.756;23.130;2023-08-31T14:09:38;10.50;;;2.63;;
11887;SDS011;6003;42.756;23.130;2023-08-31T14:12:05;8.93;;;2.47;;
11887;SDS011;6003;42.756;23.130;2023-08-31T14:14:32;5.43;;;1.70;;
11887;SDS011;6003;42.756;23.130;2023-08-31T14:16:59;8.17;;;1.90;;
11887;SDS011;6003;42.756;23.130;2023-08-31T14:19:26;5.63;;;1.90;;
11887;SDS011;6003;42.756;23.130;2023-08-31T14:21:53;5.30;;;1.87;;
11887;SDS011;6003;42.756;23.130;2023-08-31T14:24:21;6.33;;;1.73;;
11887;SDS011;6003;42.756;23.130;2023-08-31T14:26:48;5.53;;;1.97;;
11887;SDS011;6003;42.756;23.130;2023-08-31T14:29:16;6.27;;;2.17;;
11887;SDS011;6003;42.756;23.130;2023-08-31T14:31:43;6.83;;;2.03;;
11887;SDS011;6003;42.756;23.130;2023-08-31T14:34:10;4.23;;;1.80;;
11887;SDS011;6003;42.756;23.130;2023-08-31T14:36:36;5.53;;;1.83;;
11887;SDS011;6003;42.756;23.130;2023-08-31T14:39:04;10.03;;;1.93;;
11887;SDS011;6003;42.756;23.130;2023-08-31T14:41:32;6.93;;;2.00;;
11887;SDS011;6003;42.756;23.130;2023-08-31T14:43:59;5.77;;;1.87;;
11887;SDS011;6003;42.756;23.130;2023-08-31T14:46:25;8.63;;;1.97;;
11887;SDS011;6003;42.756;23.130;2023-08-31T14:48:52;5.47;;;1.70;;
11887;SDS011;6003;42.756;23.130;2023-08-31T14:51:19;6.57;;;1.93;;
11887;SDS011;6003;42.756;23.130;2023-08-31T14:53:46;3.67;;;1.83;;
11887;SDS011;6003;42.756;23.130;2023-08-31T14:56:13;5.10;;;2.00;;
11887;SDS011;6003;42.756;23.130;2023-08-31T14:58:42;3.37;;;1.70;;
11887;SDS011;6003;42.756;23.130;2023-08-31T15:01:09;7.17;;;2.27;;
11887;SDS011;6003;42.756;23.130;2023-08-31T15:03:36;3.57;;;1.63;;